Time;durP1;ratioP1;P1;durP2;ratioP2;P2;SDS_P1;SDS_P2;PMS_P1;PMS_P2;Temp;Humidity;BMP_temperature;BMP_pressure;BME280_temperature;BME280_humidity;BME280_pressure;Samples;Min_cycle;Max_cycle;Signal;HPM_P1;HPM_P2
2022/04/24 00:02:02;;;;;;;70.67;40.55;;;;;;;3.52;69.73;99301.49;2223038;78;21028;-77
2022/04/24 00:05:10;;;;;;;104.38;51.30;;;;;;;3.49;69.71;99304.41;2215068;78;21116;-77
2022/04/24 00:08:11;;;;;;;88.65;47.70;;;;;;;3.39;69.79;99297.88;2209718;78;21097;-85
2022/04/24 00:11:16;;;;;;;73.78;39.03;;;;;;;3.34;70.03;99298.28;2215384;78;21060;-77
2022/04/24 00:14:19;;;;;;;70.83;39.23;;;;;;;3.29;70.44;99302.30;2222630;78;21063;-87
2022/04/24 00:17:23;;;;;;;63.78;36.03;;;;;;;3.07;70.24;99297.71;2217066;78;21613;-77
2022/04/24 00:20:28;;;;;;;64.03;36.28;;;;;;;3.00;70.61;99290.05;2217497;78;21091;-77
2022/04/24 00:23:33;;;;;;;90.15;43.48;;;;;;;2.99;70.78;99289.71;2222776;78;21530;-77
2022/04/24 00:26:39;;;;;;;57.33;36.58;;;;;;;3.02;70.40;99289.44;2178239;78;21024;-80
2022/04/24 00:29:45;;;;;;;67.00;36.85;;;;;;;3.06;70.78;99280.31;2216440;78;21646;-80
2022/04/24 00:32:50;;;;;;;59.85;36.15;;;;;;;3.14;71.04;99275.69;2216680;78;21017;-78
2022/04/24 00:35:51;;;;;;;61.37;35.95;;;;;;;3.19;71.28;99277.91;2218150;78;23009;-77
2022/04/24 00:38:55;;;;;;;58.45;36.90;;;;;;;3.21;71.47;99272.87;2216458;78;20981;-78
2022/04/24 00:41:58;;;;;;;56.20;33.42;;;;;;;3.22;71.15;99270.58;2217499;78;21067;-78
2022/04/24 00:45:03;;;;;;;59.23;36.03;;;;;;;3.24;71.14;99271.27;2219800;78;21107;-81
2022/04/24 00:48:10;;;;;;;57.25;34.20;;;;;;;3.25;71.03;99268.98;2223644;78;21841;-85
2022/04/24 00:51:12;;;;;;;50.23;32.65;;;;;;;3.27;70.98;99264.92;2221412;78;21048;-78
2022/04/24 00:54:16;;;;;;;49.85;32.10;;;;;;;3.24;70.97;99263.86;2221678;78;21058;-78
2022/04/24 00:57:19;;;;;;;59.98;35.15;;;;;;;3.25;71.07;99264.23;2223422;78;21024;-79
2022/04/24 01:00:23;;;;;;;96.75;46.65;;;;;;;3.24;71.16;99258.62;2221651;78;21076;-78
2022/04/24 01:03:29;;;;;;;64.97;35.65;;;;;;;3.25;71.18;99259.81;2220091;78;21064;-81
2022/04/24 01:06:36;;;;;;;76.33;39.45;;;;;;;3.30;71.17;99258.09;2233876;78;21319;-78
2022/04/24 01:09:41;;;;;;;82.90;43.15;;;;;;;3.36;71.18;99256.20;2227932;78;21295;-77
2022/04/24 01:12:46;;;;;;;85.55;43.92;;;;;;;3.36;70.98;99251.78;2222307;78;21009;-78
2022/04/24 01:15:54;;;;;;;57.38;34.75;;;;;;;3.37;70.66;99254.73;2227233;78;21089;-78
2022/04/24 01:19:03;;;;;;;53.17;34.00;;;;;;;3.28;70.65;99251.66;2214957;78;21080;-79
2022/04/24 01:22:08;;;;;;;57.43;35.55;;;;;;;3.25;70.79;99248.50;2218180;78;20971;-78
2022/04/24 01:25:16;;;;;;;53.70;33.90;;;;;;;3.19;71.01;99255.62;2219893;78;21088;-78
2022/04/24 01:28:18;;;;;;;54.15;33.40;;;;;;;3.12;71.05;99251.41;2221708;78;21087;-78
2022/04/24 01:31:25;;;;;;;56.10;33.40;;;;;;;3.08;71.05;99250.86;2216494;78;21073;-78
2022/04/24 01:34:27;;;;;;;48.40;32.33;;;;;;;3.09;70.96;99253.81;2215318;78;22230;-79
2022/04/24 01:37:29;;;;;;;52.88;34.83;;;;;;;3.01;70.90;99244.52;2229882;78;21779;-85
2022/04/24 01:40:32;;;;;;;58.35;33.83;;;;;;;2.93;71.14;99240.48;2221505;78;21097;-78
2022/04/24 01:43:36;;;;;;;55.80;31.97;;;;;;;2.86;71.16;99235.44;2217580;78;21611;-87
2022/04/24 01:46:40;;;;;;;59.20;33.38;;;;;;;2.78;70.96;99234.81;2218406;78;21112;-79
2022/04/24 01:49:45;;;;;;;51.77;32.60;;;;;;;2.74;71.30;99228.20;2207904;78;21586;-78
2022/04/24 01:52:48;;;;;;;49.05;30.72;;;;;;;2.71;71.71;99224.55;2214026;78;21143;-79
2022/04/24 01:55:51;;;;;;;53.20;30.77;;;;;;;2.71;71.93;99223.73;2222153;78;21064;-78
2022/04/24 01:58:58;;;;;;;50.58;31.05;;;;;;;2.72;71.67;99230.62;2226877;78;21060;-78
2022/04/24 02:02:07;;;;;;;52.33;32.73;;;;;;;2.75;71.57;99232.47;2220942;78;21085;-83
2022/04/24 02:05:11;;;;;;;52.58;31.70;;;;;;;2.78;71.66;99228.75;2219587;78;21072;-81
2022/04/24 02:08:13;;;;;;;54.33;32.42;;;;;;;2.73;71.36;99227.84;2214293;78;21638;-79
2022/04/24 02:11:16;;;;;;;53.42;32.90;;;;;;;2.67;71.21;99228.40;2219072;78;21056;-78
2022/04/24 02:14:18;;;;;;;52.33;30.12;;;;;;;2.49;71.33;99223.03;2223237;78;21022;-79
2022/04/24 02:17:23;;;;;;;51.42;29.92;;;;;;;2.27;72.55;99219.35;2233688;78;21066;-79
2022/04/24 02:20:27;;;;;;;52.13;32.03;;;;;;;2.09;72.38;99220.02;2214011;78;21037;-79
2022/04/24 02:23:29;;;;;;;56.88;35.98;;;;;;;2.07;73.88;99214.08;2228345;78;21331;-82
2022/04/24 02:26:32;;;;;;;52.58;32.00;;;;;;;2.11;73.73;99204.16;2224154;78;21041;-79
2022/04/24 02:29:35;;;;;;;58.42;33.98;;;;;;;2.09;73.41;99206.11;2236255;78;21067;-78
2022/04/24 02:32:38;;;;;;;65.32;33.28;;;;;;;2.09;73.48;99210.03;2221023;78;21048;-78
2022/04/24 02:35:45;;;;;;;58.42;33.18;;;;;;;2.11;73.82;99208.94;2239782;78;21234;-80
2022/04/24 02:38:48;;;;;;;48.83;30.05;;;;;;;2.09;73.76;99198.26;2214415;78;21040;-80
2022/04/24 02:41:54;;;;;;;49.08;29.75;;;;;;;2.12;73.90;99197.98;2221662;78;22301;-78
2022/04/24 02:44:55;;;;;;;47.35;28.70;;;;;;;2.19;74.09;99191.23;2224264;78;21032;-79
2022/04/24 02:48:02;;;;;;;47.60;28.62;;;;;;;2.35;74.74;99185.47;2213691;78;21081;-79
2022/04/24 02:51:07;;;;;;;45.73;28.05;;;;;;;2.63;75.06;99192.50;2199744;79;22142;-84
2022/04/24 02:54:11;;;;;;;43.30;26.35;;;;;;;2.88;75.37;99187.66;2208458;79;21495;-79
2022/04/24 02:57:19;;;;;;;47.08;29.30;;;;;;;3.01;74.90;99184.23;2215332;79;21084;-79
2022/04/24 03:00:22;;;;;;;40.85;25.90;;;;;;;3.06;74.51;99180.70;2206237;80;21060;-81
2022/04/24 03:03:27;;;;;;;42.70;27.02;;;;;;;3.08;74.64;99174.85;2208280;79;21017;-77
2022/04/24 03:06:32;;;;;;;40.78;26.12;;;;;;;3.10;74.43;99166.37;2183222;80;21686;-78
2022/04/24 03:09:36;;;;;;;43.52;28.30;;;;;;;3.11;74.27;99165.39;2201719;80;21072;-79
2022/04/24 03:12:41;;;;;;;41.77;27.13;;;;;;;3.12;74.14;99157.03;2200833;80;21357;-78
2022/04/24 03:15:48;;;;;;;42.50;25.00;;;;;;;3.12;74.24;99155.23;2211659;79;21112;-80
2022/04/24 03:18:51;;;;;;;39.85;25.40;;;;;;;3.14;74.35;99154.62;2207842;80;21033;-79
2022/04/24 03:21:58;;;;;;;39.83;25.62;;;;;;;3.18;74.52;99151.70;2208091;80;21100;-79
2022/04/24 03:25:05;;;;;;;42.88;28.10;;;;;;;3.20;74.23;99159.77;2212380;79;21057;-78
2022/04/24 03:28:09;;;;;;;48.73;25.55;;;;;;;3.20;74.29;99158.46;2206224;80;21017;-77
2022/04/24 03:31:15;;;;;;;39.70;23.85;;;;;;;3.21;74.31;99156.20;2204574;80;21087;-79
2022/04/24 03:34:18;;;;;;;44.90;26.57;;;;;;;3.23;74.36;99152.93;2209594;79;21570;-78
2022/04/24 03:37:23;;;;;;;44.45;25.68;;;;;;;3.25;74.26;99157.55;2207796;80;21084;-82
2022/04/24 03:40:28;;;;;;;39.33;25.15;;;;;;;3.28;74.30;99157.76;2207896;80;21072;-79
2022/04/24 03:43:31;;;;;;;41.90;24.05;;;;;;;3.33;74.61;99149.80;2205863;80;21061;-78
2022/04/24 03:46:37;;;;;;;37.98;23.32;;;;;;;3.40;74.54;99155.77;2210371;79;21061;-78
2022/04/24 03:49:44;;;;;;;36.40;23.50;;;;;;;3.50;74.71;99151.33;2205984;80;21002;-79
2022/04/24 03:52:44;;;;;;;37.53;22.90;;;;;;;3.63;74.63;99137.86;2215932;79;21021;-78
2022/04/24 03:55:46;;;;;;;34.75;22.35;;;;;;;3.74;74.70;99140.28;2211306;79;22137;-79
2022/04/24 03:58:50;;;;;;;35.30;22.98;;;;;;;3.86;74.46;99147.45;2199922;80;21109;-79
2022/04/24 04:01:55;;;;;;;31.45;21.05;;;;;;;3.97;74.19;99145.48;2203822;80;21533;-78
2022/04/24 04:05:01;;;;;;;36.03;21.37;;;;;;;4.08;74.30;99147.53;2208643;79;22202;-78
2022/04/24 04:08:06;;;;;;;35.58;20.12;;;;;;;4.31;74.33;99153.16;2214712;80;21053;-78
2022/04/24 04:11:10;;;;;;;38.13;22.75;;;;;;;4.59;74.14;99142.92;2209789;80;21064;-79
2022/04/24 04:14:13;;;;;;;33.48;21.27;;;;;;;4.90;73.87;99138.06;2202809;80;21028;-79
2022/04/24 04:17:16;;;;;;;37.28;21.68;;;;;;;5.27;73.62;99137.45;2203853;80;21077;-79
2022/04/24 04:20:21;;;;;;;30.35;20.25;;;;;;;5.64;73.21;99135.80;2201907;79;21053;-79
2022/04/24 04:23:28;;;;;;;27.40;18.73;;;;;;;5.96;72.63;99142.17;2202980;79;21076;-83
2022/04/24 04:26:36;;;;;;;27.82;18.42;;;;;;;6.27;72.13;99141.90;2206915;80;21161;-84
2022/04/24 04:29:41;;;;;;;21.60;15.55;;;;;;;6.59;71.86;99145.56;2199909;80;21136;-79
2022/04/24 04:32:50;;;;;;;25.52;16.02;;;;;;;6.96;71.04;99149.49;2205220;80;21733;-79
2022/04/24 04:35:54;;;;;;;22.05;15.90;;;;;;;7.21;70.51;99150.75;2204528;80;21429;-78
2022/04/24 04:38:57;;;;;;;23.60;15.65;;;;;;;7.40;69.95;99156.96;2210015;80;21069;-79
2022/04/24 04:42:06;;;;;;;25.90;15.88;;;;;;;7.71;69.78;99158.33;2207697;79;21116;-79
2022/04/24 04:45:17;;;;;;;24.87;15.58;;;;;;;7.99;69.29;99156.05;2210781;80;21038;-81
2022/04/24 04:48:23;;;;;;;28.17;16.57;;;;;;;8.37;69.30;99163.28;2210421;78;21092;-81
2022/04/24 04:51:24;;;;;;;28.50;18.90;;;;;;;8.76;68.45;99161.86;2222412;78;21084;-87
2022/04/24 04:54:30;;;;;;;25.95;18.35;;;;;;;8.89;67.57;99150.15;2217865;78;21060;-79
2022/04/24 04:57:31;;;;;;;29.30;19.40;;;;;;;8.79;66.89;99157.53;2223100;78;21069;-80
2022/04/24 05:00:35;;;;;;;29.67;20.90;;;;;;;8.72;66.93;99153.44;2232772;78;21064;-80
2022/04/24 05:03:39;;;;;;;24.45;18.57;;;;;;;8.78;66.93;99148.44;2217299;78;21072;-80
2022/04/24 05:06:45;;;;;;;29.85;20.43;;;;;;;9.07;66.95;99151.16;2226627;78;21072;-79
2022/04/24 05:09:51;;;;;;;30.30;21.30;;;;;;;9.32;66.23;99153.05;2219283;78;21052;-78
2022/04/24 05:12:57;;;;;;;31.93;22.35;;;;;;;9.50;65.40;99161.13;2221330;78;21099;-78
2022/04/24 05:16:01;;;;;;;33.23;21.48;;;;;;;9.60;65.05;99164.30;2226184;78;22464;-78
2022/04/24 05:19:07;;;;;;;33.02;19.75;;;;;;;9.58;64.41;99157.06;2222167;78;21535;-81
2022/04/24 05:22:14;;;;;;;28.00;18.62;;;;;;;9.71;64.09;99158.54;2235236;78;21104;-81
2022/04/24 05:25:15;;;;;;;28.20;17.80;;;;;;;9.91;64.07;99152.19;2218170;78;21091;-81
2022/04/24 05:28:24;;;;;;;23.50;17.15;;;;;;;10.20;63.91;99156.58;2217055;78;21076;-84
2022/04/24 05:31:30;;;;;;;27.75;18.27;;;;;;;10.35;63.37;99155.73;2216823;78;21048;-79
2022/04/24 05:34:36;;;;;;;27.65;19.12;;;;;;;10.59;62.27;99150.06;2221088;78;21064;-86
2022/04/24 05:37:36;;;;;;;24.72;18.62;;;;;;;10.99;62.16;99150.39;2215831;78;21084;-80
2022/04/24 05:40:41;;;;;;;26.17;17.77;;;;;;;10.99;62.16;99150.39;2229414;78;21617;-79
2022/04/24 05:43:43;;;;;;;25.80;19.05;;;;;;;11.08;60.23;99150.55;2224836;78;20947;-79
2022/04/24 05:46:46;;;;;;;26.62;18.95;;;;;;;10.98;60.02;99148.73;2227832;78;21044;-80
2022/04/24 05:49:51;;;;;;;31.20;19.20;;;;;;;10.98;59.51;99151.38;2216533;78;21568;-79
2022/04/24 05:52:57;;;;;;;28.07;18.00;;;;;;;10.98;59.59;99144.27;2224204;78;21059;-79
2022/04/24 05:55:59;;;;;;;23.90;16.77;;;;;;;11.06;59.64;99156.55;2232197;78;21071;-81
2022/04/24 05:59:00;;;;;;;26.27;18.48;;;;;;;10.76;58.17;99134.19;2219337;78;21590;-76
2022/04/24 06:02:05;;;;;;;27.70;17.60;;;;;;;10.41;59.23;99152.33;2218577;78;21008;-77
2022/04/24 06:05:12;;;;;;;24.55;18.40;;;;;;;10.23;59.07;99149.58;2215509;78;21065;-78
2022/04/24 06:08:18;;;;;;;25.57;17.77;;;;;;;10.08;59.85;99147.48;2217146;78;21045;-79
2022/04/24 06:11:23;;;;;;;22.85;16.23;;;;;;;9.96;60.36;99146.31;2222483;78;21033;-73
2022/04/24 06:14:26;;;;;;;21.10;14.80;;;;;;;9.84;60.22;99145.47;2216658;78;21096;-71
2022/04/24 06:17:28;;;;;;;22.02;15.18;;;;;;;9.71;60.32;99144.48;2219257;78;21261;-79
2022/04/24 06:20:31;;;;;;;27.17;16.85;;;;;;;9.54;60.73;99140.70;2223642;78;21033;-80
2022/04/24 06:23:33;;;;;;;21.85;15.55;;;;;;;9.48;60.99;99139.30;2216119;78;21056;-78
2022/04/24 06:26:39;;;;;;;22.48;15.25;;;;;;;9.40;61.15;99131.78;2223339;78;21555;-79
2022/04/24 06:29:43;;;;;;;23.20;14.20;;;;;;;9.38;61.59;99135.61;2224147;78;21503;-75
2022/04/24 06:32:48;;;;;;;18.75;13.85;;;;;;;9.37;61.63;99133.95;2213239;78;21350;-76
2022/04/24 06:35:57;;;;;;;23.55;14.68;;;;;;;9.35;61.58;99136.80;2215166;78;21077;-74
2022/04/24 06:39:01;;;;;;;21.07;14.03;;;;;;;9.33;61.88;99128.21;2225942;78;22191;-72
2022/04/24 06:42:06;;;;;;;20.30;13.72;;;;;;;9.32;61.74;99120.44;2222386;78;21025;-77
2022/04/24 06:45:11;;;;;;;22.55;14.47;;;;;;;9.33;62.08;99124.75;2228839;78;21049;-82
2022/04/24 06:48:16;;;;;;;22.40;14.03;;;;;;;9.37;62.07;99118.07;2226867;78;21064;-75
2022/04/24 06:51:22;;;;;;;19.27;13.38;;;;;;;9.45;62.44;99111.86;2230231;78;21662;-74
2022/04/24 06:54:27;;;;;;;21.45;13.53;;;;;;;9.60;62.45;99104.23;2207926;78;21052;-78
2022/04/24 06:57:28;;;;;;;22.55;14.68;;;;;;;9.75;62.39;99095.44;2225556;78;21590;-74
2022/04/24 07:00:33;;;;;;;24.90;14.70;;;;;;;9.88;62.21;99097.73;2223063;78;21338;-77
2022/04/24 07:03:35;;;;;;;25.48;15.35;;;;;;;9.94;62.07;99090.86;2223381;78;21040;-75
2022/04/24 07:06:43;;;;;;;20.35;13.88;;;;;;;9.91;62.25;99086.42;2227432;78;21088;-75
2022/04/24 07:09:48;;;;;;;20.48;13.88;;;;;;;9.85;61.74;99091.97;2209156;78;20974;-80
2022/04/24 07:12:53;;;;;;;22.40;14.47;;;;;;;9.77;62.06;99084.13;2228007;78;21060;-77
2022/04/24 07:15:56;;;;;;;19.37;13.53;;;;;;;9.73;62.29;99088.98;2224081;78;21018;-74
2022/04/24 07:19:00;;;;;;;23.38;14.38;;;;;;;9.79;62.26;99077.64;2223507;78;21289;-77
2022/04/24 07:22:04;;;;;;;18.60;13.13;;;;;;;9.86;62.42;99072.44;2222301;78;21032;-76
2022/04/24 07:25:07;;;;;;;20.05;13.00;;;;;;;9.94;62.22;99082.06;2228602;78;21446;-76
2022/04/24 07:28:14;;;;;;;25.00;14.50;;;;;;;10.02;62.22;99076.66;2221990;78;21037;-75
2022/04/24 07:31:19;;;;;;;19.40;14.10;;;;;;;10.08;62.04;99060.02;2231043;78;21017;-76
2022/04/24 07:34:21;;;;;;;21.73;14.15;;;;;;;10.26;62.21;99051.61;2221752;78;21857;-80
2022/04/24 07:37:23;;;;;;;20.52;13.50;;;;;;;10.42;61.83;99055.36;2222943;78;21056;-79
2022/04/24 07:40:28;;;;;;;24.07;13.83;;;;;;;10.52;61.25;99058.99;2219551;78;21037;-83
2022/04/24 07:43:30;;;;;;;19.32;12.73;;;;;;;10.55;61.51;99051.97;2225058;78;21303;-78
2022/04/24 07:46:32;;;;;;;18.92;12.68;;;;;;;10.58;59.98;99050.77;2225899;78;21046;-77
2022/04/24 07:49:34;;;;;;;18.55;13.93;;;;;;;10.57;59.86;99046.48;2210015;78;21579;-75
2022/04/24 07:52:35;;;;;;;26.05;16.30;;;;;;;10.59;60.02;99036.00;2212732;80;21060;-81
2022/04/24 07:55:37;;;;;;;22.10;13.22;;;;;;;10.68;60.24;99038.00;2210807;80;21006;-82
2022/04/24 07:58:39;;;;;;;18.40;12.70;;;;;;;10.72;58.69;99034.75;2187256;80;21052;-86
2022/04/24 08:01:40;;;;;;;18.42;13.55;;;;;;;10.75;59.42;99028.23;2209468;80;21073;-79
2022/04/24 08:04:42;;;;;;;19.80;13.08;;;;;;;10.82;59.29;99038.91;2208298;79;21076;-84
2022/04/24 08:07:45;;;;;;;18.57;14.07;;;;;;;10.86;59.24;99034.84;2213603;80;21064;-86
2022/04/24 08:10:50;;;;;;;18.85;13.15;;;;;;;10.94;59.72;99045.30;2205963;80;21039;-83
2022/04/24 08:13:53;;;;;;;18.55;12.15;;;;;;;11.06;59.92;99046.38;2217097;79;21085;-80
2022/04/24 08:16:58;;;;;;;18.45;11.95;;;;;;;11.24;59.11;99043.74;2214484;80;21107;-84
2022/04/24 08:19:59;;;;;;;14.47;10.98;;;;;;;11.37;59.00;99035.81;2214589;79;21055;-85
2022/04/24 08:23:04;;;;;;;15.68;11.88;;;;;;;11.60;59.33;99041.64;2216316;79;22266;-83
2022/04/24 08:26:07;;;;;;;16.45;12.33;;;;;;;11.71;59.06;99038.08;2214767;79;21016;-83
2022/04/24 08:29:09;;;;;;;16.73;11.38;;;;;;;11.78;58.31;99038.92;2216944;79;21586;-81
2022/04/24 08:32:12;;;;;;;16.40;10.95;;;;;;;11.76;57.29;99037.78;2218092;79;21025;-84
2022/04/24 08:35:17;;;;;;;18.25;12.47;;;;;;;11.64;57.97;99027.44;2210588;79;21033;-86
2022/04/24 08:38:23;;;;;;;15.95;11.12;;;;;;;11.64;57.97;99027.44;2211337;80;21047;-84
2022/04/24 08:41:28;;;;;;;18.20;11.28;;;;;;;11.77;58.27;99046.57;2195042;79;21107;-81
2022/04/24 08:44:35;;;;;;;12.85;9.80;;;;;;;11.78;58.24;99053.55;2216022;79;21081;-82
2022/04/24 08:47:37;;;;;;;12.50;8.68;;;;;;;11.77;57.68;99047.90;2217796;80;21013;-81
2022/04/24 08:50:42;;;;;;;15.43;9.33;;;;;;;11.80;56.48;99055.50;2231866;78;21590;-85
2022/04/24 08:53:44;;;;;;;12.03;9.20;;;;;;;11.83;57.25;99050.59;2235939;78;21515;-82
2022/04/24 08:56:50;;;;;;;12.18;9.35;;;;;;;11.74;56.10;99018.59;2231602;78;21088;-83
2022/04/24 08:59:53;;;;;;;10.65;8.45;;;;;;;11.88;56.54;99044.20;2231305;78;21083;-86
2022/04/24 09:02:57;;;;;;;12.25;9.40;;;;;;;11.92;56.42;99039.30;2234124;78;21016;-87
2022/04/24 09:05:59;;;;;;;10.55;8.60;;;;;;;11.95;56.14;99041.55;2230573;78;21405;-87
2022/04/24 09:09:06;;;;;;;13.65;9.05;;;;;;;11.98;55.64;99038.48;2238253;78;21051;-86
2022/04/24 09:12:12;;;;;;;12.23;9.18;;;;;;;11.98;55.55;99043.80;2235451;78;21043;-86
2022/04/24 09:15:18;;;;;;;11.88;9.33;;;;;;;11.97;55.60;99036.04;2232308;78;21076;-86
2022/04/24 09:18:21;;;;;;;15.68;9.05;;;;;;;11.95;54.82;99034.09;2228103;78;21009;-86
2022/04/24 09:21:25;;;;;;;12.82;9.30;;;;;;;11.94;55.18;99029.28;2231910;78;21080;-86
2022/04/24 09:24:59;;;;;;;12.45;10.18;;;;;;;11.97;54.82;99022.23;2234185;78;21060;-86
2022/04/24 09:28:05;;;;;;;11.38;10.18;;;;;;;11.97;54.16;99027.55;2230052;78;21036;-86
2022/04/24 09:31:09;;;;;;;12.75;9.93;;;;;;;12.01;54.83;99027.44;2232087;78;21048;-84
2022/04/24 09:34:10;;;;;;;18.10;10.03;;;;;;;12.06;55.02;99023.67;2228584;78;21061;-86
2022/04/24 09:37:17;;;;;;;19.90;12.13;;;;;;;12.14;54.86;99029.83;2232852;78;20977;-86
2022/04/24 09:40:24;;;;;;;21.97;13.15;;;;;;;12.19;54.81;99014.90;2227389;78;21090;-86
2022/04/24 09:43:26;;;;;;;16.55;11.50;;;;;;;12.30;54.97;99005.47;2231317;78;21068;-85
2022/04/24 09:46:30;;;;;;;16.37;11.18;;;;;;;12.40;54.87;99007.21;2232597;78;21614;-87
2022/04/24 09:49:41;;;;;;;17.62;11.93;;;;;;;12.51;54.25;99000.45;2226547;78;21401;-87
2022/04/24 09:52:47;;;;;;;13.50;10.70;;;;;;;12.65;54.46;98993.28;2227778;78;21061;-86
2022/04/24 09:55:53;;;;;;;14.80;10.90;;;;;;;12.96;54.33;98991.26;2220146;78;21085;-84
2022/04/24 09:58:57;;;;;;;13.40;10.82;;;;;;;13.22;53.58;98985.82;2222694;78;21084;-86
2022/04/24 10:02:02;;;;;;;15.28;11.40;;;;;;;13.48;53.86;98976.62;2221009;78;21097;-85
2022/04/24 10:05:07;;;;;;;12.13;9.83;;;;;;;13.69;53.65;98965.64;2218914;78;21052;-85
2022/04/24 10:08:11;;;;;;;14.87;10.90;;;;;;;13.96;52.32;98965.44;2217720;78;21531;-86
2022/04/24 10:11:20;;;;;;;16.02;11.10;;;;;;;14.04;50.61;98961.98;2224044;78;21558;-85
2022/04/24 10:14:20;;;;;;;13.85;10.65;;;;;;;14.00;50.66;98957.33;2197238;78;21041;-85
2022/04/24 10:17:56;;;;;;;16.27;10.45;;;;;;;13.88;51.25;98951.36;2223681;78;21030;-87
2022/04/24 10:21:32;;;;;;;17.30;10.85;;;;;;;13.83;50.27;98949.05;2231634;78;21583;-85
2022/04/24 10:24:42;;;;;;;13.98;11.53;;;;;;;13.68;50.87;98954.66;2219675;78;21103;-85
2022/04/24 10:27:48;;;;;;;14.90;10.40;;;;;;;13.63;51.22;98950.51;2218500;78;21080;-85
2022/04/24 10:31:01;;;;;;;16.30;10.53;;;;;;;13.53;49.44;98944.82;2221288;78;21492;-86
2022/04/24 10:34:08;;;;;;;15.35;11.35;;;;;;;13.49;50.34;98928.95;2225193;78;22305;-87
2022/04/24 10:37:09;;;;;;;12.53;9.60;;;;;;;13.50;50.57;98930.59;2223687;78;21087;-87
2022/04/24 10:40:19;;;;;;;14.90;10.88;;;;;;;13.58;51.29;98922.34;2215632;78;21500;-85
2022/04/24 10:43:24;;;;;;;14.90;10.83;;;;;;;13.60;51.35;98912.27;2217074;78;21103;-86
2022/04/24 10:46:33;;;;;;;17.57;10.68;;;;;;;13.61;50.82;98912.59;2222530;78;21036;-84
2022/04/24 10:49:35;;;;;;;12.05;9.55;;;;;;;13.57;51.39;98911.37;2221719;78;21057;-80
2022/04/24 10:52:45;;;;;;;14.23;10.72;;;;;;;13.52;50.58;98906.70;2215158;79;21032;-84
2022/04/24 10:55:47;;;;;;;16.02;9.65;;;;;;;13.46;50.67;98914.23;2208747;79;21089;-85
2022/04/24 10:58:55;;;;;;;11.03;8.58;;;;;;;13.50;50.93;98898.09;2221816;78;21072;-85
2022/04/24 11:02:01;;;;;;;13.03;9.58;;;;;;;13.52;50.15;98896.56;2194686;78;21129;-84
2022/04/24 11:05:10;;;;;;;9.70;8.18;;;;;;;13.50;50.63;98894.63;2188406;78;21045;-83
2022/04/24 11:08:20;;;;;;;12.98;8.33;;;;;;;13.47;49.63;98908.38;2215580;78;21030;-80
2022/04/24 11:11:22;;;;;;;11.40;9.23;;;;;;;13.43;49.22;98896.82;2213390;78;21004;-83
2022/04/24 11:14:29;;;;;;;10.53;8.10;;;;;;;13.40;49.07;98894.59;2214711;79;20993;-82
2022/04/24 11:17:30;;;;;;;10.20;7.22;;;;;;;13.41;48.75;98902.87;2220155;79;21577;-78
2022/04/24 11:20:37;;;;;;;14.07;8.48;;;;;;;13.40;48.69;98901.25;2214730;79;21059;-85
2022/04/24 11:23:40;;;;;;;12.05;8.48;;;;;;;13.38;49.48;98895.83;2212424;80;21041;-76
2022/04/24 11:26:48;;;;;;;9.48;7.35;;;;;;;13.37;49.23;98888.85;2215918;80;21363;-80
2022/04/24 11:29:51;;;;;;;10.50;7.47;;;;;;;13.35;49.15;98881.61;2214630;80;21021;-73
2022/04/24 11:33:04;;;;;;;10.00;8.15;;;;;;;13.33;48.56;98881.00;2217982;79;21024;-77
2022/04/24 11:36:07;;;;;;;11.15;8.55;;;;;;;13.32;49.23;98882.85;2218903;79;21052;-80
2022/04/24 11:39:09;;;;;;;11.78;8.20;;;;;;;13.34;49.23;98879.44;2216832;79;21022;-78
2022/04/24 11:42:10;;;;;;;13.08;8.80;;;;;;;13.39;49.52;98884.94;2217796;79;21026;-78
2022/04/24 11:52:10;;;;;;;11.55;8.65;;;;;;;13.51;48.86;98876.26;2236087;78;21029;-77
2022/04/24 11:56:00;;;;;;;12.18;8.08;;;;;;;13.50;49.27;98870.64;2195484;79;21060;-76
2022/04/24 11:58:29;;;;;;;11.25;8.68;;;;;;;13.49;49.48;98875.16;2182475;79;21048;-75
2022/04/24 12:01:32;;;;;;;10.90;8.78;;;;;;;13.51;49.62;98877.59;2178423;79;21045;-77
2022/04/24 12:04:38;;;;;;;10.63;8.75;;;;;;;13.54;49.97;98877.16;2170951;81;21003;-77
2022/04/24 12:07:41;;;;;;;11.08;8.88;;;;;;;13.57;49.87;98872.23;2212137;78;21037;-77
2022/04/24 12:10:47;;;;;;;13.00;8.55;;;;;;;13.58;49.87;98883.70;2144996;81;21538;-74
2022/04/24 12:14:08;;;;;;;11.20;8.78;;;;;;;13.56;50.26;98873.77;2205273;80;21020;-74
2022/04/24 12:17:11;;;;;;;13.62;9.63;;;;;;;13.55;50.32;98866.81;2207959;78;21073;-73
2022/04/24 12:20:16;;;;;;;12.45;7.92;;;;;;;13.57;50.63;98862.06;2204706;80;21513;-75
2022/04/24 12:23:22;;;;;;;10.95;8.18;;;;;;;13.62;50.39;98860.38;2142919;81;21041;-74
2022/04/24 12:26:27;;;;;;;10.32;7.78;;;;;;;13.67;50.49;98861.08;2163506;81;21074;-75
2022/04/24 12:29:30;;;;;;;8.03;7.00;;;;;;;13.64;49.07;98864.17;2188184;79;21032;-74
2022/04/24 12:32:40;;;;;;;9.30;6.97;;;;;;;13.60;48.78;98856.30;2205843;80;21084;-74
2022/04/24 12:35:47;;;;;;;9.33;8.08;;;;;;;13.53;48.87;98866.20;2214300;80;20978;-74
2022/04/24 12:39:09;;;;;;;10.95;8.75;;;;;;;13.44;49.11;98861.14;2143956;81;21072;-75
2022/04/24 12:42:17;;;;;;;11.95;9.43;;;;;;;13.32;49.67;98860.70;2121961;81;21547;-75
2022/04/24 12:45:24;;;;;;;12.85;9.60;;;;;;;13.14;49.91;98870.20;2183772;79;21002;-74
2022/04/24 12:48:31;;;;;;;13.35;9.70;;;;;;;12.98;51.01;98854.23;2183217;79;20975;-76
2022/04/24 12:51:36;;;;;;;11.88;10.28;;;;;;;12.83;51.23;98852.34;2177437;79;21073;-75
2022/04/24 12:54:41;;;;;;;10.72;9.03;;;;;;;12.70;51.94;98857.23;2175055;79;21104;-74
2022/04/24 12:57:47;;;;;;;14.33;10.60;;;;;;;12.53;52.73;98853.41;2173257;79;21092;-75
2022/04/24 13:00:52;;;;;;;14.70;11.22;;;;;;;12.38;53.24;98860.28;2171946;79;21096;-75
2022/04/24 13:03:56;;;;;;;12.75;10.68;;;;;;;12.25;53.58;98857.16;2166776;79;21013;-75
2022/04/24 13:07:00;;;;;;;14.63;11.00;;;;;;;12.14;54.18;98855.14;2176674;79;21037;-78
2022/04/24 13:10:15;;;;;;;18.25;12.25;;;;;;;12.07;54.87;98847.16;2219056;78;21089;-79
2022/04/24 13:13:16;;;;;;;14.87;12.50;;;;;;;12.02;55.42;98842.16;2211968;78;21571;-81
2022/04/24 13:19:45;;;;;;;15.03;12.10;;;;;;;11.76;57.13;98835.01;2218670;78;21092;-74
2022/04/24 13:22:48;;;;;;;19.17;14.65;;;;;;;11.58;57.99;98833.79;2217984;78;21072;-82
2022/04/24 13:25:57;;;;;;;14.75;11.80;;;;;;;11.45;59.00;98833.27;2222188;78;21076;-84
2022/04/24 13:29:03;;;;;;;15.63;11.97;;;;;;;11.08;60.65;98802.80;2229397;78;21056;-79
2022/04/24 13:32:07;;;;;;;14.03;11.20;;;;;;;11.08;60.65;98802.80;2213762;78;21044;-85
2022/04/24 13:35:12;;;;;;;13.75;10.00;;;;;;;10.81;62.39;98804.56;2209723;78;21077;-85
2022/04/24 13:38:17;;;;;;;13.48;10.13;;;;;;;10.76;63.34;98817.13;2224177;78;21053;-85
2022/04/24 13:41:22;;;;;;;14.33;10.88;;;;;;;10.76;63.34;98817.13;2213039;78;21024;-86
2022/04/24 13:44:27;;;;;;;15.23;11.48;;;;;;;10.66;63.59;98818.00;2226865;78;21426;-83
2022/04/24 13:47:35;;;;;;;13.63;9.97;;;;;;;10.61;63.66;98813.79;2218382;78;21172;-77
2022/04/24 13:50:36;;;;;;;12.45;9.88;;;;;;;10.58;65.41;98799.60;2230322;78;22089;-82
2022/04/24 13:53:38;;;;;;;13.18;10.13;;;;;;;10.54;66.32;98794.40;2218602;78;21061;-81
2022/04/24 13:56:42;;;;;;;17.80;12.53;;;;;;;10.43;67.76;98765.80;2213766;78;21020;-81
2022/04/24 13:59:45;;;;;;;14.78;10.45;;;;;;;10.34;67.66;98767.81;2214428;78;21570;-78
2022/04/24 14:02:50;;;;;;;10.72;7.53;;;;;;;10.29;68.05;98759.11;2203309;78;21055;-85
2022/04/24 14:05:54;;;;;;;9.90;7.35;;;;;;;10.23;68.93;98751.92;2223940;78;21514;-83
2022/04/24 14:08:58;;;;;;;9.50;7.42;;;;;;;10.17;69.08;98750.06;2215294;78;21539;-83
2022/04/24 14:12:03;;;;;;;10.20;8.08;;;;;;;10.14;68.51;98749.14;2188078;78;21038;-82
2022/04/24 14:15:06;;;;;;;9.73;7.40;;;;;;;10.08;69.08;98743.31;2228333;78;21601;-83
2022/04/24 14:18:09;;;;;;;11.68;7.60;;;;;;;10.06;69.34;98751.95;2227390;78;21551;-82
2022/04/24 14:21:13;;;;;;;8.63;7.50;;;;;;;10.02;69.60;98752.02;2224064;78;21036;-83
2022/04/24 14:24:15;;;;;;;11.83;8.60;;;;;;;9.99;69.63;98749.77;2222492;78;20973;-83
2022/04/24 14:27:18;;;;;;;13.13;9.33;;;;;;;9.95;69.89;98745.88;2226063;78;21056;-83
2022/04/24 14:30:24;;;;;;;10.32;8.93;;;;;;;9.91;69.68;98736.20;2219341;78;21060;-83